createdAt,value
2019-01-23T00:00:29.749Z,56.21
2019-01-23T00:05:26.951Z,56.78
2019-01-23T00:10:24.757Z,56.81
2019-01-23T00:15:21.675Z,56.36
2019-01-23T00:20:18.659Z,56.00
2019-01-23T00:25:15.578Z,56.41
2019-01-23T00:30:14.371Z,56.04
2019-01-23T00:35:11.481Z,55.94
2019-01-23T00:40:13.146Z,56.25
2019-01-23T00:45:12.673Z,56.36
2019-01-23T00:50:11.924Z,56.28
2019-01-23T00:55:15.428Z,56.06
2019-01-23T01:00:24.742Z,56.26
2019-01-23T01:05:22.070Z,56.65
2019-01-23T01:10:20.415Z,56.42
2019-01-23T01:15:17.361Z,56.75
2019-01-23T01:20:15.409Z,56.70
2019-01-23T01:25:15.920Z,56.71
2019-01-23T01:30:18.907Z,56.91
2019-01-23T01:35:15.828Z,57.28
2019-01-23T01:40:15.757Z,56.81
2019-01-23T01:45:15.074Z,56.48
2019-01-23T01:50:17.804Z,56.72
2019-01-23T01:55:14.698Z,56.63
2019-01-23T02:00:15.364Z,56.37
2019-01-23T02:05:12.256Z,56.28
2019-01-23T02:10:15.861Z,56.80
2019-01-23T02:15:14.163Z,56.90
2019-01-23T02:20:22.666Z,56.93
2019-01-23T02:25:19.931Z,56.69
2019-01-23T02:30:20.169Z,56.60
2019-01-23T02:35:17.285Z,56.58
2019-01-23T02:40:20.917Z,56.41
2019-01-23T02:45:18.219Z,56.30
2019-01-23T02:50:15.596Z,56.49
2019-01-23T02:55:12.777Z,56.68
2019-01-23T03:00:16.758Z,56.71
2019-01-23T03:05:16.482Z,56.73
2019-01-23T03:10:17.160Z,56.54
2019-01-23T03:15:16.658Z,56.52
2019-01-23T03:20:15.799Z,56.84
2019-01-23T03:25:13.899Z,57.01
2019-01-23T03:30:14.625Z,57.38
2019-01-23T03:35:11.701Z,57.11
2019-01-23T03:40:15.287Z,57.17
2019-01-23T03:45:15.197Z,57.43
2019-01-23T03:50:17.503Z,57.36
2019-01-23T03:55:16.700Z,57.72
2019-01-23T04:00:16.634Z,57.64
2019-01-23T04:05:13.833Z,58.16
2019-01-23T04:10:13.797Z,57.61
2019-01-23T04:15:14.441Z,57.64
2019-01-23T04:20:19.258Z,58.20
2019-01-23T04:25:16.493Z,57.83
2019-01-23T04:30:18.589Z,57.87
2019-01-23T04:35:15.728Z,57.70
2019-01-23T04:40:13.870Z,57.36
2019-01-23T04:45:13.754Z,57.51
2019-01-23T04:50:14.016Z,57.25
2019-01-23T04:55:11.026Z,57.72
2019-01-23T05:00:12.583Z,57.27
2019-01-23T05:05:09.634Z,57.44
2019-01-23T05:10:06.767Z,57.80
2019-01-23T05:15:06.980Z,57.59
2019-01-23T05:20:10.981Z,57.70
2019-01-23T05:25:08.173Z,58.01
2019-01-23T05:30:22.010Z,57.97
2019-01-23T05:35:18.926Z,57.71
2019-01-23T05:40:15.960Z,57.83
2019-01-23T05:45:13.880Z,57.32
2019-01-23T05:50:16.702Z,58.41
2019-01-23T05:55:13.625Z,58.42
2019-01-23T06:00:17.027Z,58.61
2019-01-23T06:05:14.418Z,58.21
2019-01-23T06:10:11.976Z,58.33
2019-01-23T06:15:11.469Z,57.82
2019-01-23T06:20:16.189Z,57.48
2019-01-23T06:25:13.233Z,57.59
2019-01-23T06:30:19.535Z,57.43
2019-01-23T06:35:17.702Z,57.82
2019-01-23T06:40:16.857Z,57.58
2019-01-23T06:45:16.472Z,57.22
2019-01-23T06:50:19.738Z,57.12
2019-01-23T06:55:16.655Z,57.48
2019-01-23T07:00:22.053Z,56.98
2019-01-23T07:05:19.038Z,56.82
2019-01-23T07:10:21.915Z,56.51
2019-01-23T07:15:19.100Z,56.42
2019-01-23T07:20:20.462Z,56.96
2019-01-23T07:25:17.358Z,56.33
2019-01-23T07:30:30.750Z,56.33
2019-01-23T07:35:28.565Z,56.21
2019-01-23T07:40:25.500Z,56.44
2019-01-23T07:45:25.447Z,57.12
2019-01-23T07:50:22.421Z,56.50
2019-01-23T07:55:20.437Z,56.81
2019-01-23T08:00:20.691Z,56.49
2019-01-23T08:05:21.102Z,55.83
2019-01-23T08:10:19.547Z,55.27
2019-01-23T08:15:31.926Z,54.39
2019-01-23T08:20:29.654Z,54.43
2019-01-23T08:25:26.673Z,54.06
2019-01-23T08:30:25.425Z,54.79
2019-01-23T08:35:23.494Z,55.01
2019-01-23T08:40:20.516Z,54.93
2019-01-23T08:45:17.442Z,54.69
2019-01-23T08:50:34.288Z,54.72
2019-01-23T08:55:31.192Z,54.64
2019-01-23T09:00:28.245Z,54.24
2019-01-23T09:05:25.189Z,54.35
2019-01-23T09:10:26.040Z,53.61
2019-01-23T09:15:22.958Z,53.92
2019-01-23T09:20:21.599Z,54.17
2019-01-23T09:25:26.284Z,53.44
2019-01-23T09:30:52.632Z,53.90
2019-01-23T09:35:57.830Z,53.95
2019-01-23T09:41:03.142Z,53.44
2019-01-23T09:46:05.489Z,52.87
2019-01-23T09:51:33.781Z,52.66
2019-01-23T09:56:30.714Z,53.16
2019-01-23T10:01:27.648Z,52.74
2019-01-23T10:06:24.547Z,52.64
2019-01-23T10:11:21.518Z,51.26
2019-01-23T10:16:18.424Z,50.76
2019-01-23T10:21:15.866Z,51.01
2019-01-23T10:26:13.269Z,50.75
2019-01-23T10:31:10.230Z,50.23
2019-01-23T10:36:07.388Z,50.56
2019-01-23T10:41:04.406Z,50.22
2019-01-23T10:46:01.614Z,50.56
2019-01-23T10:50:58.563Z,50.21
2019-01-23T10:55:55.462Z,50.10
2019-01-23T11:00:52.429Z,50.37
2019-01-23T11:05:49.338Z,50.59
2019-01-23T11:10:46.277Z,50.02
2019-01-23T11:15:43.190Z,49.29
2019-01-23T11:20:40.133Z,49.98
2019-01-23T11:25:37.056Z,49.72
2019-01-23T11:30:33.994Z,49.25
2019-01-23T11:35:30.926Z,50.14
2019-01-23T11:40:30.088Z,50.72
2019-01-23T11:45:27.032Z,51.14
2019-01-23T11:50:24.182Z,50.82
2019-01-23T11:55:21.089Z,50.83
2019-01-23T12:00:25.017Z,51.12
2019-01-23T12:05:22.649Z,51.23
2019-01-23T12:10:22.545Z,51.68
2019-01-23T12:15:22.338Z,52.14
2019-01-23T12:20:19.709Z,51.94
2019-01-23T12:25:16.646Z,52.03
2019-01-23T12:30:23.585Z,52.25
2019-01-23T12:35:20.507Z,52.29
2019-01-23T12:40:17.746Z,52.35
2019-01-23T12:45:26.366Z,51.39
2019-01-23T12:50:30.025Z,51.58
2019-01-23T12:55:26.939Z,51.34
2019-01-23T13:00:26.722Z,51.81
2019-01-23T13:05:23.921Z,51.53
2019-01-23T13:10:23.378Z,51.76
2019-01-23T13:15:25.723Z,51.73
2019-01-23T13:20:25.138Z,52.11
2019-01-23T13:25:25.104Z,52.59
2019-01-23T13:30:24.404Z,52.00
2019-01-23T13:35:28.263Z,51.86
2019-01-23T13:40:34.755Z,52.42
2019-01-23T13:45:31.732Z,53.06
2019-01-23T13:50:28.694Z,52.97
2019-01-23T13:55:26.706Z,52.95
2019-01-23T14:00:37.620Z,52.76
2019-01-23T14:05:34.684Z,53.46
2019-01-23T14:10:31.770Z,53.06
2019-01-23T14:15:38.482Z,53.00
2019-01-23T14:20:35.482Z,53.80
2019-01-23T14:25:32.744Z,54.25
2019-01-23T14:30:39.864Z,54.11
2019-01-23T14:35:37.884Z,53.74
2019-01-23T14:40:34.786Z,54.05
2019-01-23T14:45:31.738Z,54.40
2019-01-23T14:50:29.793Z,54.60
2019-01-23T14:55:26.704Z,54.50
2019-01-23T15:00:32.067Z,54.79
2019-01-23T15:05:30.986Z,55.43
2019-01-23T15:10:30.756Z,55.49
2019-01-23T15:15:27.840Z,55.58
2019-01-23T15:20:36.679Z,55.89
2019-01-23T15:25:33.674Z,55.64
2019-01-23T15:30:30.941Z,55.60
2019-01-23T15:35:27.957Z,55.59
2019-01-23T15:40:31.282Z,56.00
2019-01-23T15:45:28.252Z,55.98
2019-01-23T15:50:26.390Z,56.42
2019-01-23T15:55:25.050Z,55.95
2019-01-23T16:00:28.986Z,56.31
2019-01-23T16:05:25.890Z,55.93
2019-01-23T16:10:27.708Z,56.06
2019-01-23T16:15:27.058Z,55.67
2019-01-23T16:20:24.309Z,55.85
2019-01-23T16:25:21.214Z,55.79
2019-01-23T16:30:29.379Z,56.53
2019-01-23T16:35:26.293Z,56.23
2019-01-23T16:40:23.246Z,55.90
2019-01-23T16:45:22.010Z,55.65
2019-01-23T16:50:27.633Z,56.04
2019-01-23T16:55:24.830Z,56.36
2019-01-23T17:00:26.635Z,56.08
2019-01-23T17:05:27.431Z,55.97
2019-01-23T17:10:26.496Z,56.10
2019-01-23T17:15:25.203Z,56.22
2019-01-23T17:20:30.407Z,55.81
2019-01-23T17:25:27.313Z,56.07
2019-01-23T17:30:24.886Z,56.58
2019-01-23T17:35:21.853Z,56.31
2019-01-23T17:40:21.900Z,55.93
2019-01-23T17:45:29.177Z,55.62
2019-01-23T17:50:26.201Z,55.23
2019-01-23T17:55:31.086Z,54.78
2019-01-23T18:00:31.586Z,55.18
2019-01-23T18:05:30.577Z,55.75
2019-01-23T18:10:27.792Z,55.87
2019-01-23T18:15:29.247Z,55.60
2019-01-23T18:20:28.285Z,55.30
2019-01-23T18:25:25.323Z,55.30
2019-01-23T18:30:39.320Z,55.46
2019-01-23T18:36:05.729Z,55.41
2019-01-23T18:41:35.018Z,55.35
2019-01-23T18:46:44.864Z,55.46
2019-01-23T18:51:44.693Z,55.89
2019-01-23T18:56:41.638Z,56.01
2019-01-23T19:01:38.936Z,55.90
2019-01-23T19:06:37.926Z,55.18
2019-01-23T19:11:35.178Z,56.03
2019-01-23T19:16:32.139Z,56.06
2019-01-23T19:21:29.061Z,55.84
2019-01-23T19:26:26.130Z,56.08
2019-01-23T19:31:23.030Z,55.42
2019-01-23T19:36:20.148Z,55.48
2019-01-23T19:41:20.491Z,55.75
2019-01-23T19:46:16.526Z,55.34
2019-01-23T19:51:13.580Z,55.34
2019-01-23T19:56:10.550Z,55.71
2019-01-23T20:01:08.442Z,55.45
2019-01-23T20:06:05.503Z,55.66
2019-01-23T20:11:02.624Z,55.50
2019-01-23T20:15:59.600Z,55.85
2019-01-23T20:20:56.642Z,55.88
2019-01-23T20:25:53.688Z,55.71
2019-01-23T20:30:50.593Z,55.87
2019-01-23T20:35:47.649Z,56.07
2019-01-23T20:40:44.554Z,56.38
2019-01-23T20:45:41.484Z,57.37
2019-01-23T20:50:38.403Z,56.66
2019-01-23T20:55:35.355Z,56.74
2019-01-23T21:00:32.746Z,56.30
2019-01-23T21:05:32.646Z,55.98
2019-01-23T21:10:29.687Z,56.48
2019-01-23T21:15:28.945Z,56.75
2019-01-23T21:20:27.459Z,56.44
2019-01-23T21:25:24.391Z,55.90
2019-01-23T21:30:24.209Z,56.16
2019-01-23T21:35:21.254Z,55.65
2019-01-23T21:40:25.063Z,55.30
2019-01-23T21:45:22.054Z,55.94
2019-01-23T21:50:24.786Z,56.92
2019-01-23T21:55:23.485Z,57.21
2019-01-23T22:00:30.455Z,57.36
2019-01-23T22:05:27.488Z,57.42
2019-01-23T22:10:25.385Z,57.90
2019-01-23T22:15:31.527Z,57.70
2019-01-23T22:20:28.451Z,57.04
2019-01-23T22:25:25.645Z,56.71
2019-01-23T22:30:30.403Z,57.17
2019-01-23T22:35:27.414Z,57.24
2019-01-23T22:40:24.440Z,56.63
2019-01-23T22:45:21.341Z,57.11
2019-01-23T22:50:24.012Z,57.37
2019-01-23T22:55:21.003Z,56.54
2019-01-23T23:00:27.163Z,56.80
2019-01-23T23:05:24.058Z,56.92
2019-01-23T23:10:21.469Z,57.45
2019-01-23T23:15:19.718Z,57.71
2019-01-23T23:20:16.668Z,57.61
2019-01-23T23:25:13.709Z,57.55
2019-01-23T23:30:18.922Z,57.79
2019-01-23T23:35:15.825Z,58.01
2019-01-23T23:40:15.989Z,58.07
2019-01-23T23:45:15.687Z,58.26
2019-01-23T23:50:15.240Z,58.31
2019-01-23T23:55:14.157Z,59.24
